Time;durP1;ratioP1;P1;durP2;ratioP2;P2;SDS_P1;SDS_P2;PMS_P1;PMS_P2;Temp;Humidity;BMP_temperature;BMP_pressure;BME280_temperature;BME280_humidity;BME280_pressure;Samples;Min_cycle;Max_cycle;Signal;HPM_P1;HPM_P2
2024/01/27 00:00:35;;;;;;;13.38;6.75;;;4.50;1.00;;;2.96;100.00;102375.78;4949306;29;20044;-79
2024/01/27 00:03:02;;;;;;;8.73;6.63;;;4.50;1.00;;;3.00;100.00;102380.28;4918277;29;20145;-78
2024/01/27 00:05:29;;;;;;;9.60;6.88;;;4.40;1.00;;;2.92;100.00;102372.16;4960569;28;20042;-79
2024/01/27 00:07:58;;;;;;;11.25;6.90;;;4.40;1.00;;;2.98;100.00;102389.75;4976620;28;20089;-79
2024/01/27 00:10:25;;;;;;;11.65;6.57;;;4.40;1.00;;;2.92;100.00;102387.78;4963135;28;20574;-79
2024/01/27 00:12:52;;;;;;;11.68;6.68;;;4.40;99.90;;;2.86;100.00;102403.13;4942236;29;20047;-78
2024/01/27 00:15:19;;;;;;;10.60;6.90;;;4.30;99.90;;;2.88;100.00;102395.38;4947460;28;20106;-78
2024/01/27 00:17:46;;;;;;;14.98;8.18;;;4.40;99.90;;;3.00;100.00;102406.28;4946747;28;20098;-78
2024/01/27 00:20:13;;;;;;;17.63;8.95;;;4.30;1.00;;;2.97;100.00;102399.28;4947455;28;20051;-78
2024/01/27 00:22:40;;;;;;;15.95;7.78;;;4.40;1.00;;;2.97;100.00;102390.56;4967929;28;20049;-78
2024/01/27 00:25:07;;;;;;;18.52;10.85;;;4.50;99.90;;;2.90;100.00;102370.34;4930894;28;20048;-78
2024/01/27 00:27:36;;;;;;;24.70;13.88;;;4.40;99.90;;;2.96;100.00;102389.66;4959700;28;20161;-78
2024/01/27 00:30:04;;;;;;;26.25;14.35;;;4.90;99.90;;;2.77;100.00;102381.97;4956455;28;20149;-78
2024/01/27 00:32:31;;;;;;;21.45;13.18;;;4.40;67.00;;;2.72;100.00;102394.75;4943951;28;20046;-79
2024/01/27 00:34:58;;;;;;;21.25;11.82;;;4.30;61.80;;;2.53;100.00;102388.81;4969292;28;20090;-78
2024/01/27 00:37:25;;;;;;;22.20;10.82;;;4.10;99.90;;;2.39;100.00;102392.53;4935281;28;20102;-78
2024/01/27 00:39:52;;;;;;;13.10;8.63;;;4.10;99.90;;;2.38;100.00;102398.56;4944198;28;20050;-78
2024/01/27 00:42:23;;;;;;;14.05;8.10;;;4.00;1.00;;;2.38;100.00;102395.94;4952735;28;20628;-78
2024/01/27 00:44:51;;;;;;;11.65;6.50;;;4.00;1.00;;;2.42;100.00;102392.69;4943845;29;20107;-78
2024/01/27 00:47:18;;;;;;;13.65;6.97;;;3.80;1.00;;;2.53;100.00;102424.31;4955922;28;20066;-78
2024/01/27 00:49:45;;;;;;;9.68;6.60;;;3.90;1.00;;;2.44;100.00;102403.13;4960729;28;20069;-78
2024/01/27 00:52:12;;;;;;;14.75;7.43;;;4.00;1.00;;;2.50;100.00;102409.47;4960412;28;20043;-78
2024/01/27 00:54:39;;;;;;;12.27;5.90;;;3.90;1.00;;;2.49;100.00;102422.38;4963241;28;20031;-78
2024/01/27 00:57:06;;;;;;;11.10;6.90;;;3.90;1.00;;;2.12;100.00;102390.53;4940357;28;20055;-78
2024/01/27 00:59:33;;;;;;;11.18;5.90;;;3.80;92.40;;;2.08;100.00;102401.59;4958098;28;20043;-77
2024/01/27 01:02:01;;;;;;;11.60;5.75;;;3.70;99.90;;;2.11;100.00;102410.41;4950824;28;20717;-78
2024/01/27 01:04:27;;;;;;;12.98;7.45;;;3.70;1.00;;;1.93;100.00;102401.81;4955821;28;20051;-78
2024/01/27 01:06:55;;;;;;;9.95;6.13;;;4.60;99.90;;;1.68;100.00;102382.53;4958993;28;20043;-78
2024/01/27 01:09:22;;;;;;;14.07;7.38;;;3.50;1.00;;;1.77;100.00;102410.63;4970129;28;20046;-78
2024/01/27 01:11:50;;;;;;;11.45;7.32;;;3.30;1.00;;;1.76;100.00;102427.00;4966221;28;20153;-78
2024/01/27 01:14:20;;;;;;;12.35;6.97;;;3.80;1.00;;;1.65;100.00;102430.03;4965411;28;20054;-78
2024/01/27 01:16:47;;;;;;;12.68;7.28;;;3.60;1.00;;;1.76;100.00;102435.72;4963603;28;20043;-78
2024/01/27 01:19:14;;;;;;;11.80;6.65;;;3.30;1.00;;;1.84;100.00;102438.66;4956009;28;20676;-78
2024/01/27 01:21:41;;;;;;;10.20;6.07;;;3.30;1.00;;;1.90;100.00;102433.72;4956297;28;20132;-78
2024/01/27 01:24:08;;;;;;;11.35;6.43;;;3.40;1.00;;;1.93;100.00;102433.84;4951619;28;20126;-78
2024/01/27 01:26:35;;;;;;;9.50;6.57;;;3.40;1.00;;;1.92;100.00;102432.06;4975957;28;20043;-78
2024/01/27 01:29:02;;;;;;;11.07;7.00;;;3.50;1.00;;;1.91;100.00;102442.41;4961527;28;20445;-78
2024/01/27 01:31:29;;;;;;;8.65;5.80;;;3.50;1.00;;;1.97;100.00;102460.84;4944657;28;20043;-78
2024/01/27 01:33:56;;;;;;;6.95;5.70;;;3.40;1.00;;;1.83;100.00;102455.91;4953707;28;20055;-78
2024/01/27 01:36:23;;;;;;;9.63;5.10;;;3.40;1.00;;;1.60;100.00;102459.19;4969843;28;20051;-78
2024/01/27 01:38:50;;;;;;;9.63;5.88;;;3.30;99.90;;;1.63;100.00;102465.38;4966250;28;20101;-78
2024/01/27 01:41:20;;;;;;;6.25;5.18;;;4.40;1.00;;;1.54;100.00;102471.03;4962688;28;20039;-78
2024/01/27 01:43:47;;;;;;;11.38;5.15;;;3.20;1.00;;;1.31;100.00;102469.94;4972639;28;20525;-78
2024/01/27 01:46:14;;;;;;;8.07;5.63;;;3.10;1.00;;;1.44;100.00;102470.53;4960061;28;20054;-79
2024/01/27 01:48:41;;;;;;;7.05;4.30;;;3.00;1.00;;;1.54;100.00;102476.22;4965017;28;20050;-78
2024/01/27 01:51:09;;;;;;;7.60;5.22;;;3.10;1.00;;;1.64;100.00;102485.34;4950569;28;20047;-77
2024/01/27 01:53:36;;;;;;;8.38;5.97;;;3.10;1.00;;;1.58;100.00;102486.75;4974606;28;20043;-78
2024/01/27 01:56:04;;;;;;;9.77;6.03;;;3.10;1.00;;;1.48;100.00;102469.84;4969818;28;20438;-78
2024/01/27 01:58:34;;;;;;;8.95;4.70;;;3.00;1.00;;;1.50;100.00;102484.69;4972067;28;20521;-77
2024/01/27 02:01:01;;;;;;;6.45;5.03;;;3.10;1.00;;;1.32;100.00;102479.47;4972844;28;20050;-78
2024/01/27 02:03:28;;;;;;;6.68;4.70;;;3.00;1.00;;;1.28;100.00;102474.97;4960864;28;20109;-77
2024/01/27 02:05:56;;;;;;;6.10;4.78;;;2.90;1.00;;;1.22;100.00;102483.34;4973634;28;20042;-76
2024/01/27 02:08:23;;;;;;;6.95;4.70;;;2.70;1.00;;;1.32;100.00;102483.81;4967931;28;20086;-77
2024/01/27 02:10:50;;;;;;;11.05;5.60;;;2.80;1.00;;;1.32;100.00;102478.63;4990913;28;20683;-77
2024/01/27 02:13:24;;;;;;;7.32;5.80;;;2.90;1.00;;;1.36;100.00;102480.53;4968671;28;20057;-77
2024/01/27 02:15:51;;;;;;;8.38;6.57;;;2.80;1.00;;;1.26;100.00;102472.31;4972120;28;20136;-77
2024/01/27 02:18:19;;;;;;;9.02;6.38;;;2.70;1.00;;;1.24;100.00;102473.94;4947445;28;20493;-77
2024/01/27 02:20:47;;;;;;;9.18;6.00;;;2.70;1.00;;;1.18;100.00;102481.44;4983654;28;20588;-77
2024/01/27 02:23:14;;;;;;;7.40;6.15;;;2.70;1.00;;;1.15;100.00;102488.16;4938283;28;20467;-78
2024/01/27 02:25:41;;;;;;;8.43;6.03;;;2.70;1.00;;;0.98;100.00;102498.59;4973653;28;20035;-77
2024/01/27 02:28:08;;;;;;;7.13;4.97;;;2.60;1.00;;;0.85;100.00;102494.50;4953657;28;20059;-77
2024/01/27 02:30:35;;;;;;;7.93;5.65;;;2.60;1.00;;;1.03;100.00;102506.59;4942871;28;20510;-77
2024/01/27 02:33:02;;;;;;;8.07;5.13;;;2.60;1.00;;;0.95;100.00;102498.44;4964347;28;20157;-77
2024/01/27 02:35:29;;;;;;;6.32;4.22;;;2.60;1.00;;;0.72;100.00;102500.78;4954312;28;20105;-77
2024/01/27 02:37:56;;;;;;;8.80;5.05;;;2.40;1.00;;;0.68;100.00;102504.91;4960037;28;20047;-78
2024/01/27 02:40:23;;;;;;;10.77;6.28;;;2.40;1.00;;;0.82;100.00;102518.56;4957287;28;20525;-77
2024/01/27 02:42:50;;;;;;;10.23;6.35;;;2.40;1.00;;;0.85;100.00;102517.81;4959839;28;20045;-77
2024/01/27 02:45:18;;;;;;;10.07;5.80;;;2.30;1.00;;;0.87;100.00;102511.00;4934880;28;20150;-77
2024/01/27 02:47:47;;;;;;;9.20;6.72;;;2.50;1.00;;;0.98;100.00;102521.91;4950375;28;20536;-78
2024/01/27 02:50:18;;;;;;;9.90;7.20;;;2.50;1.00;;;1.05;100.00;102512.75;4975081;28;20066;-77
2024/01/27 02:52:45;;;;;;;12.50;7.15;;;2.50;1.00;;;1.05;100.00;102500.69;4954283;28;20089;-77
2024/01/27 02:55:12;;;;;;;7.15;5.97;;;2.50;1.00;;;0.96;100.00;102501.13;4958182;28;20044;-77
2024/01/27 02:57:43;;;;;;;12.43;6.13;;;2.60;1.00;;;0.76;100.00;102487.16;4966065;28;20158;-77
2024/01/27 03:00:11;;;;;;;6.57;5.03;;;2.50;1.00;;;0.79;100.00;102491.63;4965618;28;20058;-78
2024/01/27 03:02:38;;;;;;;8.05;6.40;;;2.50;1.00;;;0.87;100.00;102507.53;4978514;28;20094;-77
2024/01/27 03:05:05;;;;;;;5.65;4.80;;;3.00;1.00;;;0.79;100.00;102508.03;4969496;28;20071;-78
2024/01/27 03:07:32;;;;;;;9.90;7.15;;;2.40;1.00;;;0.85;100.00;102505.75;4961465;28;20043;-77
2024/01/27 03:09:59;;;;;;;7.72;6.22;;;2.30;1.00;;;0.85;100.00;102510.91;4969791;28;20051;-77
2024/01/27 03:12:26;;;;;;;9.25;6.30;;;2.30;1.00;;;0.73;100.00;102502.56;4961128;28;20102;-78
2024/01/27 03:14:57;;;;;;;8.85;6.07;;;2.90;1.00;;;0.66;100.00;102510.81;4956619;28;20097;-77
2024/01/27 03:17:23;;;;;;;;;;;2.40;1.00;;;0.50;100.00;102528.16;4961387;28;20046;-78
2024/01/27 03:19:50;;;;;;;5.63;5.00;;;2.20;1.00;;;0.46;100.00;102514.94;4962573;28;19973;-77
2024/01/27 03:22:17;;;;;;;6.57;5.00;;;2.20;1.00;;;0.52;100.00;102521.34;4946433;28;20409;-77
2024/01/27 03:24:47;;;;;;;8.02;5.53;;;2.20;1.00;;;0.44;100.00;102526.94;4946705;28;20070;-78
2024/01/27 03:27:14;;;;;;;7.22;5.35;;;2.80;1.00;;;0.41;100.00;102514.72;4963390;28;20055;-78
2024/01/27 03:29:41;;;;;;;6.82;4.57;;;2.10;1.00;;;0.25;100.00;102511.34;4954374;28;20066;-78
2024/01/27 03:32:08;;;;;;;7.85;4.88;;;2.00;1.00;;;0.17;100.00;102511.75;4958456;28;20084;-78
2024/01/27 03:34:35;;;;;;;6.00;4.68;;;1.90;1.00;;;0.33;100.00;102521.19;4953372;28;20054;-78
2024/01/27 03:37:02;;;;;;;12.95;6.72;;;1.90;1.00;;;0.48;100.00;102519.41;4960988;28;20055;-77
2024/01/27 03:39:29;;;;;;;10.55;7.35;;;1.90;1.00;;;0.53;100.00;102514.47;4943579;28;20073;-78
2024/01/27 03:41:56;;;;;;;10.57;6.53;;;2.20;1.00;;;0.46;100.00;102512.34;4967893;28;20127;-77
2024/01/27 03:44:23;;;;;;;8.63;6.03;;;2.10;1.00;;;0.30;100.00;102521.03;4960155;28;20395;-78
2024/01/27 03:46:51;;;;;;;10.43;5.93;;;2.00;1.00;;;0.19;100.00;102523.06;4958911;28;20042;-77
2024/01/27 03:49:20;;;;;;;7.05;5.57;;;1.90;1.00;;;0.09;100.00;102519.09;4960747;28;20055;-77
2024/01/27 03:51:50;;;;;;;7.93;5.55;;;1.80;1.00;;;-0.08;100.00;102506.13;4961943;28;20130;-77
2024/01/27 03:54:20;;;;;;;11.30;5.70;;;1.70;1.00;;;-0.16;100.00;102512.56;4941578;28;20083;-77
2024/01/27 03:56:50;;;;;;;7.90;5.20;;;1.70;1.00;;;-0.35;100.00;102501.22;4969419;28;20035;-77
2024/01/27 03:59:20;;;;;;;6.57;4.93;;;1.60;1.00;;;-0.19;100.00;102533.13;4958982;28;20457;-77
2024/01/27 04:01:47;;;;;;;;;;;1.40;1.00;;;-0.05;100.00;102533.84;4978586;28;20078;-78
2024/01/27 04:04:17;;;;;;;11.07;6.38;;;1.50;3.50;;;0.03;100.00;102526.50;4942951;28;20036;-77
2024/01/27 04:06:44;;;;;;;;;;;1.50;15.00;;;0.25;100.00;102546.69;4969532;28;20496;-78
2024/01/27 04:09:11;;;;;;;10.10;5.97;;;1.80;9.00;;;0.26;100.00;102546.78;4956468;28;20025;-78
2024/01/27 04:11:39;;;;;;;8.23;6.60;;;1.70;2.00;;;0.28;100.00;102541.66;4968788;28;20043;-78
2024/01/27 04:14:09;;;;;;;9.05;6.03;;;1.80;1.00;;;0.12;100.00;102527.88;4960045;28;20552;-77
2024/01/27 04:16:36;;;;;;;10.32;5.43;;;1.90;1.00;;;0.23;100.00;102562.13;4964177;28;20078;-77
2024/01/27 04:19:04;;;;;;;8.18;5.85;;;1.80;1.00;;;0.09;100.00;102563.09;4965368;28;20051;-77
2024/01/27 04:21:32;;;;;;;8.27;5.90;;;1.70;1.00;;;-0.05;100.00;102551.97;4941028;28;20039;-77
2024/01/27 04:23:59;;;;;;;8.80;6.47;;;1.70;1.00;;;0.05;100.00;102548.19;4954646;28;20676;-77
2024/01/27 04:26:26;;;;;;;10.73;5.78;;;1.70;1.00;;;0.18;100.00;102553.22;4965429;28;20175;-77
2024/01/27 04:28:53;;;;;;;13.23;7.88;;;1.80;7.40;;;0.19;100.00;102559.31;4961848;28;20057;-77
2024/01/27 04:31:20;;;;;;;14.23;7.53;;;1.80;1.00;;;0.02;100.00;102554.09;4958561;28;20055;-77
2024/01/27 04:33:47;;;;;;;10.05;6.68;;;1.80;1.00;;;0.10;100.00;102563.16;4951929;28;20094;-77
2024/01/27 04:36:14;;;;;;;12.02;7.20;;;1.80;1.00;;;0.06;100.00;102561.22;4958358;28;20078;-77
2024/01/27 04:38:43;;;;;;;9.82;6.57;;;1.80;1.00;;;0.16;100.00;102570.38;4976471;28;20041;-78
2024/01/27 04:41:10;;;;;;;9.77;6.43;;;1.80;1.00;;;0.02;100.00;102566.16;4955149;28;20090;-77
2024/01/27 04:43:37;;;;;;;10.90;6.10;;;1.80;1.00;;;-0.23;100.00;102562.22;4972324;28;20063;-77
2024/01/27 04:46:04;;;;;;;7.70;6.15;;;1.70;1.00;;;-0.26;100.00;102581.03;4934494;28;20137;-77
2024/01/27 04:48:31;;;;;;;8.27;6.13;;;1.60;1.00;;;-0.24;100.00;102581.09;4935463;28;20074;-77
2024/01/27 04:50:59;;;;;;;10.35;6.72;;;1.30;1.00;;;-0.16;100.00;102573.00;4957363;28;20043;-77
2024/01/27 04:53:26;;;;;;;12.88;8.07;;;1.50;1.00;;;-0.09;100.00;102570.75;4948623;28;20089;-78
2024/01/27 04:55:53;;;;;;;7.95;6.78;;;1.50;1.00;;;0.09;100.00;102574.31;4951094;28;20057;-77
2024/01/27 04:58:20;;;;;;;10.55;7.40;;;1.60;6.10;;;0.20;100.00;102576.63;4956743;28;20044;-77
2024/01/27 05:00:47;;;;;;;9.70;7.05;;;1.70;16.30;;;0.05;100.00;102572.38;4949013;28;20043;-77
2024/01/27 05:03:14;;;;;;;11.02;6.40;;;1.70;1.00;;;-0.10;100.00;102576.72;4945619;28;20047;-78
2024/01/27 05:05:42;;;;;;;8.90;6.25;;;1.60;1.00;;;-0.07;100.00;102575.19;4947256;28;20207;-78
2024/01/27 05:08:09;;;;;;;6.93;5.47;;;1.50;1.00;;;-0.29;100.00;102567.94;4966421;28;20085;-78
2024/01/27 05:10:36;;;;;;;9.27;6.68;;;1.40;1.00;;;-0.28;100.00;102577.47;4957084;28;20053;-78
2024/01/27 05:13:04;;;;;;;9.63;7.20;;;1.40;1.00;;;-0.49;100.00;102574.56;4964890;28;20106;-77
2024/01/27 05:15:31;;;;;;;9.23;6.03;;;1.30;1.00;;;-0.53;100.00;102582.97;4957118;28;20099;-78
2024/01/27 05:18:01;;;;;;;;;;;1.10;1.00;;;-0.64;100.00;102578.03;4942964;28;20070;-78
2024/01/27 05:20:28;;;;;;;7.20;5.57;;;1.20;1.00;;;-0.58;100.00;102572.34;4960034;28;20005;-77
2024/01/27 05:22:55;;;;;;;7.78;6.40;;;1.20;1.00;;;-0.66;100.00;102568.41;4956214;28;20043;-78
2024/01/27 05:25:22;;;;;;;10.30;5.70;;;1.10;1.00;;;-0.84;100.00;102561.38;4947426;28;20139;-78
2024/01/27 05:27:49;;;;;;;9.80;5.72;;;0.90;1.00;;;-0.81;100.00;102576.19;4963440;28;20043;-78
2024/01/27 05:30:17;;;;;;;7.10;5.40;;;1.00;1.00;;;-0.70;100.00;102584.56;4956453;28;20047;-78
2024/01/27 05:32:44;;;;;;;16.98;6.18;;;0.70;1.00;;;-0.60;100.00;102587.75;4971776;28;20051;-78
2024/01/27 05:35:11;;;;;;;8.23;5.70;;;1.00;6.80;;;-0.55;100.00;102575.09;4952457;28;20055;-77
2024/01/27 05:37:39;;;;;;;8.38;5.93;;;1.50;1.20;;;-0.44;100.00;102578.28;4953172;28;20090;-78
2024/01/27 05:40:11;;;;;;;6.95;5.55;;;1.10;2.60;;;-0.35;100.00;102572.75;4939672;28;20476;-77
2024/01/27 05:42:40;;;;;;;9.15;6.28;;;1.20;3.40;;;-0.59;100.00;102581.78;4964837;28;20042;-78
2024/01/27 05:45:08;;;;;;;10.55;6.85;;;1.40;1.00;;;-0.72;100.00;102587.94;4962868;28;20043;-79
2024/01/27 05:47:41;;;;;;;10.80;5.65;;;0.90;1.00;;;-0.74;100.00;102571.47;4970247;28;20043;-79
2024/01/27 05:50:09;;;;;;;9.40;6.28;;;1.20;1.00;;;-0.65;100.00;102585.69;4951695;28;20050;-79
2024/01/27 05:52:36;;;;;;;8.88;5.78;;;1.00;1.00;;;-0.70;100.00;102597.47;4950703;28;20066;-78
2024/01/27 05:55:06;;;;;;;11.98;6.82;;;1.10;1.00;;;-0.77;100.00;102598.81;4969138;28;20058;-78
2024/01/27 05:57:33;;;;;;;9.73;7.05;;;0.90;1.00;;;-0.69;100.00;102599.25;4958512;28;20051;-78
2024/01/27 06:00:01;;;;;;;10.23;7.25;;;2.00;1.00;;;-0.68;100.00;102583.84;4973362;28;20049;-77
2024/01/27 06:02:30;;;;;;;10.88;7.18;;;1.10;1.00;;;-0.80;100.00;102589.19;4969900;28;20042;-77
2024/01/27 06:04:58;;;;;;;9.38;6.85;;;0.90;1.00;;;-0.89;100.00;102578.31;4967564;28;20051;-78
2024/01/27 06:07:25;;;;;;;9.30;6.93;;;1.00;1.00;;;-0.79;100.00;102600.44;4961548;28;20050;-79
2024/01/27 06:09:52;;;;;;;7.60;6.43;;;0.80;1.00;;;-0.82;100.00;102595.94;4962519;28;20950;-77
2024/01/27 06:12:22;;;;;;;9.63;6.43;;;1.00;1.00;;;-0.72;100.00;102597.38;4949530;28;20049;-77
2024/01/27 06:14:49;;;;;;;;;;;1.30;1.00;;;-0.73;100.00;102598.19;4981372;28;20035;-77
2024/01/27 06:17:16;;;;;;;6.95;5.53;;;2.20;1.00;;;-0.76;100.00;102601.50;4946531;28;20013;-77
2024/01/27 06:19:43;;;;;;;8.15;6.03;;;0.90;1.00;;;-1.06;100.00;102585.06;4949867;29;20043;-77
2024/01/27 06:22:12;;;;;;;13.35;6.15;;;0.80;1.00;;;-1.00;100.00;102603.53;4959276;28;20055;-77
2024/01/27 06:24:44;;;;;;;7.93;6.18;;;0.80;1.00;;;-1.08;100.00;102594.41;4971301;28;20038;-77
2024/01/27 06:27:14;;;;;;;7.97;5.95;;;0.50;1.00;;;-0.98;100.00;102608.78;4969255;28;20046;-77
2024/01/27 06:29:42;;;;;;;;;;;0.60;1.00;;;-1.11;100.00;102594.25;4965107;28;20038;-77
2024/01/27 06:32:09;;;;;;;12.35;7.63;;;0.90;1.00;;;-1.10;100.00;102598.59;4971363;28;19957;-77
2024/01/27 06:34:39;;;;;;;9.75;5.60;;;0.90;1.00;;;-1.18;100.00;102598.16;4947416;28;20114;-77
2024/01/27 06:37:06;;;;;;;9.63;5.85;;;0.90;1.00;;;-1.32;100.00;102602.50;4957549;28;20050;-78
2024/01/27 06:39:33;;;;;;;10.32;5.88;;;0.80;1.00;;;-1.47;100.00;102586.94;4946225;28;20043;-77
2024/01/27 06:42:00;;;;;;;7.95;6.35;;;0.40;1.00;;;-1.51;100.00;102588.41;4958636;28;20178;-77
2024/01/27 06:44:27;;;;;;;12.25;5.90;;;0.70;1.00;;;-1.49;100.00;102604.03;4953254;28;20043;-77
2024/01/27 06:46:55;;;;;;;9.88;6.55;;;0.40;1.00;;;-1.42;100.00;102616.50;4957320;28;20049;-77
2024/01/27 06:49:22;;;;;;;10.85;5.50;;;0.50;1.00;;;-1.69;100.00;102593.38;4963023;28;20043;-77
2024/01/27 06:51:49;;;;;;;8.00;5.30;;;0.00;1.00;;;-1.99;100.00;102582.91;4945917;28;20600;-77
2024/01/27 06:54:16;;;;;;;7.78;5.10;;;0.90;1.00;;;-2.05;100.00;102592.81;4948807;28;20458;-77
2024/01/27 06:56:43;;;;;;;7.63;5.15;;;0.00;1.00;;;-1.93;100.00;102610.78;4947486;28;20090;-77
2024/01/27 06:59:10;;;;;;;9.02;6.00;;;0.40;1.00;;;-1.90;100.00;102609.25;4960224;28;20047;-77
2024/01/27 07:01:48;;;;;;;6.93;4.97;;;0.80;1.00;;;-1.92;100.00;102613.44;4968010;28;20043;-77
2024/01/27 07:04:15;;;;;;;6.85;5.95;;;0.30;1.00;;;-1.74;100.00;102620.56;4960242;28;20038;-77
2024/01/27 07:06:44;;;;;;;8.63;6.03;;;-0.40;3.50;;;-1.65;100.00;102610.81;4953380;28;20078;-77
2024/01/27 07:09:11;;;;;;;8.13;6.88;;;0.50;7.40;;;-1.56;100.00;102613.06;4960497;28;20491;-77
2024/01/27 07:11:38;;;;;;;16.27;8.82;;;-0.50;7.10;;;-1.50;100.00;102607.41;4964609;28;20087;-78
2024/01/27 07:14:09;;;;;;;13.85;8.52;;;0.80;9.30;;;-1.45;100.00;102598.25;4975091;28;20093;-78
2024/01/27 07:16:36;;;;;;;18.55;10.70;;;0.40;11.60;;;-1.29;100.00;102613.88;4936362;28;20043;-79
2024/01/27 07:19:03;;;;;;;16.10;9.60;;;0.20;10.30;;;-1.21;100.00;102614.34;4942978;28;20137;-78
2024/01/27 07:21:31;;;;;;;13.90;9.65;;;0.50;1.00;;;-1.08;100.00;102615.09;4928299;28;20051;-78
2024/01/27 07:23:58;;;;;;;14.68;9.43;;;0.60;1.00;;;-1.06;100.00;102616.06;4945288;28;20058;-78
2024/01/27 07:26:25;;;;;;;46.38;28.92;;;0.70;1.00;;;-1.03;100.00;102601.66;4927927;28;20083;-77
2024/01/27 07:28:52;;;;;;;24.35;16.52;;;0.70;1.00;;;-1.03;100.00;102600.75;4944695;28;20047;-77
2024/01/27 07:31:19;;;;;;;21.08;13.18;;;0.50;1.00;;;-0.96;100.00;102626.16;4928620;28;20090;-77
2024/01/27 07:33:46;;;;;;;12.98;9.80;;;0.60;1.00;;;-1.05;100.00;102626.50;4929074;29;20050;-77
2024/01/27 07:36:14;;;;;;;8.50;7.38;;;0.60;1.00;;;-0.97;100.00;102632.13;4944339;28;20043;-78
2024/01/27 07:38:41;;;;;;;13.73;7.55;;;0.80;1.00;;;-0.95;100.00;102648.63;4929060;29;20035;-78
2024/01/27 07:41:08;;;;;;;12.15;7.25;;;0.70;1.00;;;-0.92;100.00;102635.88;4944776;28;20795;-78
2024/01/27 07:43:34;;;;;;;11.32;6.78;;;0.80;1.00;;;-0.96;100.00;102618.41;4946336;28;20446;-77
2024/01/27 07:46:02;;;;;;;8.73;5.80;;;0.80;1.00;;;-0.84;100.00;102630.28;4946042;28;20051;-77
2024/01/27 07:48:29;;;;;;;7.80;6.18;;;0.80;1.00;;;-0.83;100.00;102619.16;4945260;28;20150;-78
2024/01/27 07:50:56;;;;;;;11.45;7.90;;;0.90;1.00;;;-0.75;100.00;102633.41;4940883;28;21467;-78
2024/01/27 07:53:23;;;;;;;14.38;10.93;;;0.90;1.00;;;-0.69;100.00;102623.44;4927722;28;20736;-78
2024/01/27 07:55:53;;;;;;;14.38;9.73;;;1.00;1.00;;;-0.68;100.00;102622.63;4927595;28;20043;-79
2024/01/27 07:58:20;;;;;;;;;;;1.00;1.00;;;-0.61;100.00;102629.94;4944967;28;20051;-78
2024/01/27 08:00:47;;;;;;;14.98;10.07;;;0.90;1.00;;;-0.63;100.00;102621.19;4943579;28;19957;-78
2024/01/27 08:03:14;;;;;;;12.10;8.82;;;1.10;1.00;;;-0.57;100.00;102636.19;4926732;28;20059;-78
2024/01/27 08:05:42;;;;;;;12.23;9.52;;;1.10;1.00;;;-0.54;100.00;102641.53;4944337;28;20043;-77
2024/01/27 08:08:12;;;;;;;12.00;8.90;;;1.10;1.00;;;-0.53;100.00;102625.22;4927470;29;20053;-77
2024/01/27 08:10:40;;;;;;;;;;;1.00;1.00;;;-0.55;100.00;102612.97;4927646;29;20051;-76
2024/01/27 08:13:07;;;;;;;11.90;8.40;;;1.00;1.00;;;-0.37;100.00;102629.59;4942752;28;19938;-76
2024/01/27 08:15:34;;;;;;;11.38;8.25;;;2.10;1.00;;;-0.33;100.00;102623.78;4942625;28;20051;-76
2024/01/27 08:18:01;;;;;;;13.90;8.48;;;1.30;1.00;;;-0.34;100.00;102616.81;4941321;28;20070;-78
2024/01/27 08:20:29;;;;;;;13.75;8.18;;;1.30;1.00;;;-0.32;100.00;102619.47;4942565;28;20443;-77
2024/01/27 08:22:56;;;;;;;11.05;7.72;;;1.30;1.00;;;-0.23;100.00;102629.50;4926456;29;20051;-77
2024/01/27 08:25:22;;;;;;;10.82;7.57;;;1.40;1.00;;;-0.27;100.00;102612.00;4943415;28;20442;-76
2024/01/27 08:27:49;;;;;;;11.13;7.80;;;1.30;1.00;;;-0.29;100.00;102614.50;4942757;28;20050;-76
2024/01/27 08:30:16;;;;;;;11.57;9.07;;;1.40;1.00;;;-0.24;100.00;102612.16;4943925;28;20589;-76
2024/01/27 08:32:43;;;;;;;13.85;9.98;;;1.40;1.00;;;-0.18;100.00;102605.63;4911343;29;20055;-76
2024/01/27 08:35:11;;;;;;;15.40;11.45;;;3.30;1.00;;;-0.02;100.00;102624.59;4926941;29;20055;-76
2024/01/27 08:37:41;;;;;;;14.23;9.15;;;1.50;1.00;;;-0.02;100.00;102629.78;4940885;28;20071;-76
2024/01/27 08:40:08;;;;;;;10.82;8.98;;;1.50;1.00;;;-0.16;100.00;102605.72;4921910;28;20054;-76
2024/01/27 08:42:35;;;;;;;15.82;10.18;;;1.60;1.00;;;-0.14;100.00;102619.66;4943117;28;20043;-76
2024/01/27 08:45:03;;;;;;;16.63;11.68;;;1.40;1.00;;;-0.10;100.00;102620.72;4926383;29;20064;-76
2024/01/27 08:47:30;;;;;;;14.57;10.40;;;1.50;1.00;;;-0.03;100.00;102628.00;4943147;28;20070;-76
2024/01/27 08:49:58;;;;;;;12.80;10.90;;;1.60;1.00;;;0.03;100.00;102617.09;4926946;29;20106;-76
2024/01/27 08:52:25;;;;;;;15.50;9.60;;;1.60;12.70;;;-0.01;100.00;102619.53;4943554;28;20070;-76
2024/01/27 08:54:52;;;;;;;14.63;10.40;;;1.60;6.00;;;0.09;100.00;102625.22;4942009;28;20054;-76
2024/01/27 08:57:19;;;;;;;14.77;9.80;;;1.70;11.80;;;0.22;100.00;102648.38;4910760;28;20422;-76
2024/01/27 08:59:46;;;;;;;21.85;12.02;;;1.70;8.00;;;0.13;100.00;102637.53;4942628;28;21826;-76
2024/01/27 09:02:13;;;;;;;11.88;9.80;;;1.80;6.80;;;0.30;100.00;102655.69;4941816;28;20130;-76
2024/01/27 09:04:46;;;;;;;15.35;10.80;;;1.90;18.40;;;0.35;100.00;102652.56;4942501;28;20047;-76
2024/01/27 09:07:14;;;;;;;13.90;11.48;;;1.90;9.60;;;0.30;100.00;102633.25;4943245;28;20043;-81
2024/01/27 09:09:46;;;;;;;14.25;11.48;;;2.10;8.70;;;0.36;100.00;102643.06;4927961;29;20033;-83
2024/01/27 09:12:16;;;;;;;12.63;11.32;;;3.20;3.30;;;0.45;100.00;102645.28;4930421;28;20058;-80
2024/01/27 09:14:43;;;;;;;16.55;12.20;;;2.00;1.00;;;0.52;100.00;102652.59;4945845;28;20561;-79
2024/01/27 09:17:12;;;;;;;16.13;12.02;;;2.20;15.00;;;0.74;100.00;102666.69;4931027;29;20055;-79
2024/01/27 09:19:39;;;;;;;11.43;9.65;;;2.70;43.40;;;0.85;100.00;102673.34;4946999;28;20134;-79
2024/01/27 09:22:06;;;;;;;15.38;9.20;;;2.30;27.80;;;0.89;100.00;102667.50;4932166;29;20418;-80
2024/01/27 09:24:33;;;;;;;13.32;8.68;;;3.70;9.10;;;0.83;100.00;102652.50;4932374;28;20058;-79
2024/01/27 09:27:01;;;;;;;14.52;9.90;;;3.70;21.40;;;1.00;100.00;102660.28;4938429;28;20526;-78
2024/01/27 09:29:29;;;;;;;12.73;10.55;;;2.60;19.40;;;1.15;100.00;102668.00;4915830;28;20138;-78
2024/01/27 09:31:56;;;;;;;17.88;11.88;;;3.80;26.90;;;1.21;100.00;102667.41;4948820;28;20421;-78
2024/01/27 09:34:23;;;;;;;9.73;8.30;;;2.70;28.90;;;1.27;100.00;102667.72;4946527;28;20126;-78
2024/01/27 09:36:51;;;;;;;14.80;8.95;;;2.80;23.20;;;1.36;100.00;102670.81;4931035;29;20502;-79
2024/01/27 09:39:21;;;;;;;17.35;8.95;;;2.80;15.30;;;1.46;100.00;102672.16;4947875;28;20065;-79
2024/01/27 09:41:48;;;;;;;;;;;2.90;4.00;;;1.51;100.00;102664.63;4948600;28;20054;-79
2024/01/27 09:44:19;;;;;;;13.15;6.70;;;3.30;16.80;;;1.63;100.00;102667.78;4931770;28;20385;-78
2024/01/27 09:46:47;;;;;;;15.02;9.15;;;3.10;19.30;;;1.63;100.00;102657.41;4930459;28;20059;-79
2024/01/27 09:49:14;;;;;;;8.68;6.35;;;3.20;7.40;;;1.70;100.00;102656.03;4948005;28;20062;-79
2024/01/27 09:51:42;;;;;;;13.43;6.40;;;3.20;1.00;;;1.84;100.00;102673.16;4948172;28;20043;-79
2024/01/27 09:54:09;;;;;;;13.55;7.97;;;3.40;1.00;;;1.87;100.00;102653.34;4947810;28;20035;-79
2024/01/27 09:56:38;;;;;;;9.32;6.70;;;4.50;7.90;;;1.91;100.00;102645.81;4931699;28;20446;-79
2024/01/27 09:59:06;;;;;;;11.63;6.50;;;3.40;9.70;;;2.03;100.00;102657.59;4948053;28;20039;-79
2024/01/27 10:01:34;;;;;;;8.13;5.60;;;3.50;2.10;;;2.12;100.00;102663.25;4948367;28;20608;-79
2024/01/27 10:04:02;;;;;;;13.50;7.45;;;3.60;1.00;;;2.15;100.00;102653.00;4947525;28;20039;-78
2024/01/27 10:06:30;;;;;;;18.02;8.05;;;3.60;1.50;;;2.20;100.00;102633.31;4947607;28;20501;-79
2024/01/27 10:08:57;;;;;;;14.00;7.78;;;3.70;8.70;;;2.36;100.00;102647.94;4947336;28;20130;-78
2024/01/27 10:11:25;;;;;;;17.92;9.60;;;3.80;1.00;;;2.34;100.00;102631.38;4947205;28;20794;-78
2024/01/27 10:13:57;;;;;;;14.82;8.40;;;3.90;10.00;;;2.49;100.00;102645.88;4945195;28;20039;-77
2024/01/27 10:16:27;;;;;;;12.27;7.65;;;4.00;1.00;;;2.38;100.00;102607.31;4945745;28;20047;-80
2024/01/27 10:19:02;;;;;;;12.85;6.97;;;4.30;1.00;;;2.51;100.00;102623.47;4959778;28;20039;-78
2024/01/27 10:21:30;;;;;;;16.63;8.82;;;4.00;1.00;;;2.48;100.00;102603.44;4968519;28;20055;-78